createdAt,value
2022-12-08T00:01:35.494Z,98615.28
2022-12-08T00:04:05.033Z,98615.78
2022-12-08T00:06:59.611Z,98618.38
2022-12-08T00:09:39.689Z,98616.91
2022-12-08T00:12:16.553Z,98624.81
2022-12-08T00:14:47.187Z,98624.53
2022-12-08T00:17:17.447Z,98629.19
2022-12-08T00:19:45.133Z,98625.09
2022-12-08T00:22:15.396Z,98619.91
2022-12-08T00:24:47.614Z,98621.28
2022-12-08T00:27:18.128Z,98632.19
2022-12-08T00:29:46.371Z,98637.75
2022-12-08T00:32:14.970Z,98632.84
2022-12-08T00:34:42.657Z,98629.03
2022-12-08T00:37:10.194Z,98624.28
2022-12-08T00:39:38.556Z,98621.84
2022-12-08T00:42:12.037Z,98624.81
2022-12-08T00:44:41.885Z,98619.75
2022-12-08T00:47:10.432Z,98631.88
2022-12-08T00:49:37.922Z,98630.66
2022-12-08T00:52:05.590Z,98627.53
2022-12-08T00:54:33.169Z,98636.38
2022-12-08T00:57:00.760Z,98634.19
2022-12-08T00:59:28.322Z,98636.47
2022-12-08T01:01:55.945Z,98626.44
2022-12-08T01:04:24.928Z,98620.16
2022-12-08T01:06:53.279Z,98621.25
2022-12-08T01:09:20.876Z,98619.88
2022-12-08T01:11:48.559Z,98619.31
2022-12-08T01:14:16.563Z,98623.56
2022-12-08T01:16:44.424Z,98619.91
2022-12-08T01:19:15.225Z,98620.22
2022-12-08T01:21:44.782Z,98616.34
2022-12-08T01:24:19.226Z,98619.75
2022-12-08T01:26:48.312Z,98627.81
2022-12-08T01:29:16.077Z,98621.09
2022-12-08T01:31:43.650Z,98627.06
2022-12-08T01:34:12.665Z,98622.00
2022-12-08T01:36:42.316Z,98628.69
2022-12-08T01:39:16.999Z,98622.63
2022-12-08T01:41:47.653Z,98622.91
2022-12-08T01:44:15.118Z,98612.94
2022-12-08T01:46:48.562Z,98615.22
2022-12-08T01:49:28.224Z,98613.59
2022-12-08T01:52:14.433Z,98609.38
2022-12-08T01:54:55.744Z,98604.63
2022-12-08T01:57:34.361Z,98598.50
2022-12-08T02:00:09.673Z,98600.56
2022-12-08T02:03:03.314Z,98601.22
2022-12-08T02:05:38.590Z,98610.91
2022-12-08T02:08:13.252Z,98604.50
2022-12-08T02:10:43.894Z,98599.84
2022-12-08T02:13:16.769Z,98597.41
2022-12-08T02:16:46.457Z,98600.38
2022-12-08T02:19:43.958Z,98593.97
2022-12-08T02:22:48.947Z,98605.84
2022-12-08T02:25:42.438Z,98597.66
2022-12-08T02:28:47.609Z,98609.88
2022-12-08T02:32:15.886Z,98602.41
2022-12-08T02:35:18.729Z,98593.44
2022-12-08T02:37:58.566Z,98596.75
2022-12-08T02:40:39.993Z,98589.06
2022-12-08T02:43:22.510Z,98589.06
2022-12-08T02:46:02.166Z,98594.69
2022-12-08T02:48:30.955Z,98597.84
2022-12-08T02:50:58.646Z,98589.41
2022-12-08T02:53:32.165Z,98586.56
2022-12-08T02:56:20.696Z,98595.25
2022-12-08T02:59:06.025Z,98588.53
2022-12-08T03:01:54.029Z,98575.50
2022-12-08T03:04:26.992Z,98550.38
2022-12-08T03:07:14.988Z,98550.53
2022-12-08T03:09:52.986Z,98552.16
2022-12-08T03:12:41.606Z,98561.16
2022-12-08T03:15:15.634Z,98557.59
2022-12-08T03:17:50.516Z,98564.69
2022-12-08T03:20:23.875Z,98583.22
2022-12-08T03:22:56.298Z,98574.63
2022-12-08T03:25:31.989Z,98561.41
2022-12-08T03:28:00.382Z,98560.88
2022-12-08T03:30:32.670Z,98552.97
2022-12-08T03:33:15.632Z,98551.63
2022-12-08T03:35:45.233Z,98546.06
2022-12-08T03:38:17.539Z,98557.91
2022-12-08T03:41:05.649Z,98562.66
2022-12-08T03:43:34.879Z,98547.56
2022-12-08T03:46:02.629Z,98541.84
2022-12-08T03:48:30.262Z,98535.63
2022-12-08T03:50:57.994Z,98530.59
2022-12-08T03:53:25.529Z,98530.97
2022-12-08T03:55:54.421Z,98538.75
2022-12-08T03:58:21.976Z,98532.72
2022-12-08T04:00:49.565Z,98529.88
2022-12-08T04:03:17.144Z,98538.28
2022-12-08T04:05:44.752Z,98530.66
2022-12-08T04:08:12.367Z,98525.63
2022-12-08T04:10:40.227Z,98512.25
2022-12-08T04:13:07.788Z,98516.75
2022-12-08T04:15:35.492Z,98514.59
2022-12-08T04:18:03.413Z,98512.97
2022-12-08T04:20:31.055Z,98510.25
2022-12-08T04:22:58.586Z,98508.75
2022-12-08T04:25:26.304Z,98507.81
2022-12-08T04:27:53.829Z,98514.75
2022-12-08T04:30:21.313Z,98505.06
2022-12-08T04:32:48.837Z,98502.47
2022-12-08T04:35:16.994Z,98508.19
2022-12-08T04:37:44.760Z,98505.88
2022-12-08T04:40:13.543Z,98506.97
2022-12-08T04:42:41.589Z,98503.03
2022-12-08T04:45:10.168Z,98494.31
2022-12-08T04:47:38.237Z,98496.91
2022-12-08T04:50:07.623Z,98505.06
2022-12-08T04:52:37.215Z,98498.13
2022-12-08T04:55:05.426Z,98503.16
2022-12-08T04:57:33.016Z,98490.63
2022-12-08T05:00:00.598Z,98496.84
2022-12-08T05:02:28.186Z,98488.44
2022-12-08T05:04:55.775Z,98496.03
2022-12-08T05:07:23.295Z,98496.44
2022-12-08T05:09:51.331Z,98498.91
2022-12-08T05:12:18.882Z,98487.84
2022-12-08T05:14:48.420Z,98484.56
2022-12-08T05:17:19.161Z,98486.38
2022-12-08T05:19:46.917Z,98489.31
2022-12-08T05:22:14.461Z,98483.59
2022-12-08T05:24:47.170Z,98481.75
2022-12-08T05:27:16.052Z,98480.44
2022-12-08T05:29:44.333Z,98480.69
2022-12-08T05:32:11.973Z,98484.50
2022-12-08T05:34:39.806Z,98475.41
2022-12-08T05:37:07.407Z,98467.38
2022-12-08T05:39:35.092Z,98461.69
2022-12-08T05:42:02.838Z,98473.94
2022-12-08T05:44:30.456Z,98467.94
2022-12-08T05:46:57.991Z,98479.66
2022-12-08T05:49:25.917Z,98475.75
2022-12-08T05:51:53.483Z,98484.41
2022-12-08T05:54:21.121Z,98475.19
2022-12-08T05:56:49.837Z,98475.84
2022-12-08T05:59:17.363Z,98485.63
2022-12-08T06:01:44.926Z,98480.59
2022-12-08T06:04:12.757Z,98465.88
2022-12-08T06:06:40.233Z,98474.72
2022-12-08T06:09:09.159Z,98481.50
2022-12-08T06:11:36.950Z,98487.38
2022-12-08T06:14:04.604Z,98488.28
2022-12-08T06:16:32.872Z,98489.63
2022-12-08T06:19:00.458Z,98489.16
2022-12-08T06:21:28.842Z,98495.25
2022-12-08T06:23:56.501Z,98486.38
2022-12-08T06:26:24.205Z,98487.31
2022-12-08T06:28:52.761Z,98491.13
2022-12-08T06:31:23.245Z,98483.69
2022-12-08T06:33:51.900Z,98473.59
2022-12-08T06:36:24.766Z,98473.91
2022-12-08T06:38:52.996Z,98468.44
2022-12-08T06:41:20.757Z,98472.91
2022-12-08T06:43:48.528Z,98464.75
2022-12-08T06:46:19.818Z,98469.53
2022-12-08T06:48:48.069Z,98466.84
2022-12-08T06:51:19.933Z,98463.22
2022-12-08T06:53:47.761Z,98470.94
2022-12-08T06:56:19.927Z,98462.69
2022-12-08T06:58:52.323Z,98472.97
2022-12-08T07:01:21.278Z,98469.47
2022-12-08T07:03:48.911Z,98469.94
2022-12-08T07:06:25.278Z,98462.78
2022-12-08T07:08:53.055Z,98475.03
2022-12-08T07:11:22.304Z,98473.34
2022-12-08T07:13:51.055Z,98461.81
2022-12-08T07:16:18.876Z,98462.91
2022-12-08T07:18:46.528Z,98459.22
2022-12-08T07:21:17.593Z,98450.25
2022-12-08T07:23:54.299Z,98464.72
2022-12-08T07:26:25.821Z,98464.34
2022-12-08T07:28:53.347Z,98474.38
2022-12-08T07:31:24.947Z,98463.22
2022-12-08T07:33:53.727Z,98473.63
2022-12-08T07:36:22.317Z,98470.81
2022-12-08T07:38:50.627Z,98474.00
2022-12-08T07:41:23.533Z,98460.56
2022-12-08T07:43:53.571Z,98454.47
2022-12-08T07:46:24.801Z,98451.03
2022-12-08T07:48:54.070Z,98458.69
2022-12-08T07:51:21.676Z,98457.41
2022-12-08T07:53:54.196Z,98459.88
2022-12-08T07:56:23.270Z,98462.69
2022-12-08T07:58:51.243Z,98453.00
2022-12-08T08:01:32.893Z,98453.06
2022-12-08T08:04:06.908Z,98444.53
2022-12-08T08:06:37.891Z,98450.91
2022-12-08T08:09:05.917Z,98436.31
2022-12-08T08:11:33.702Z,98442.69
2022-12-08T08:14:01.538Z,98440.88
2022-12-08T08:16:33.524Z,98432.38
2022-12-08T08:19:04.278Z,98433.91
2022-12-08T08:21:47.175Z,98441.94
2022-12-08T08:24:14.735Z,98453.53
2022-12-08T08:26:42.305Z,98444.28
2022-12-08T08:29:10.007Z,98433.78
2022-12-08T08:31:37.654Z,98426.25
2022-12-08T08:34:06.403Z,98418.78
2022-12-08T08:36:34.395Z,98422.75
2022-12-08T08:39:02.201Z,98417.41
2022-12-08T08:41:29.809Z,98421.13
2022-12-08T08:43:57.387Z,98418.19
2022-12-08T08:46:25.142Z,98413.94
2022-12-08T08:48:52.782Z,98419.47
2022-12-08T08:51:21.000Z,98414.28
2022-12-08T08:53:48.624Z,98403.31
2022-12-08T08:56:22.374Z,98397.69
2022-12-08T08:58:51.891Z,98399.47
2022-12-08T09:01:26.344Z,98390.25
2022-12-08T09:03:54.997Z,98389.06
2022-12-08T09:06:24.123Z,98395.47
2022-12-08T09:08:52.105Z,98388.78
2022-12-08T09:11:19.737Z,98377.94
2022-12-08T09:13:53.359Z,98373.44
2022-12-08T09:16:21.759Z,98366.03
2022-12-08T09:18:49.621Z,98360.66
2022-12-08T09:21:22.904Z,98354.34
2022-12-08T09:23:53.921Z,98341.88
2022-12-08T09:26:23.311Z,98340.06
2022-12-08T09:28:53.328Z,98351.19
2022-12-08T09:31:23.216Z,98340.06
2022-12-08T09:33:54.452Z,98339.13
2022-12-08T09:36:22.107Z,98343.00
2022-12-08T09:38:51.095Z,98332.91
2022-12-08T09:41:48.218Z,98339.91
2022-12-08T09:44:47.969Z,98333.09
2022-12-08T09:47:33.780Z,98326.94
2022-12-08T09:50:14.145Z,98317.38
2022-12-08T09:52:52.567Z,98323.81
2022-12-08T09:55:49.866Z,98317.00
2022-12-08T09:58:53.773Z,98322.06
2022-12-08T10:01:26.612Z,98316.03
2022-12-08T10:03:57.422Z,98294.63
2022-12-08T10:07:24.924Z,98296.19
2022-12-08T10:10:11.546Z,98292.03
2022-12-08T10:13:01.188Z,98286.19
2022-12-08T10:15:43.647Z,98297.38
2022-12-08T10:18:28.324Z,98295.06
2022-12-08T10:21:12.373Z,98309.19
2022-12-08T10:23:45.522Z,98298.50
2022-12-08T10:26:17.616Z,98291.03
2022-12-08T10:28:45.948Z,98286.19
2022-12-08T10:31:32.458Z,98281.94
2022-12-08T10:34:20.848Z,98266.31
2022-12-08T10:36:59.091Z,98250.19
2022-12-08T10:39:36.957Z,98272.97
2022-12-08T10:42:13.768Z,98263.03
2022-12-08T10:45:11.756Z,98257.97
2022-12-08T10:47:45.000Z,98273.50
2022-12-08T10:50:28.488Z,98270.78
2022-12-08T10:53:20.023Z,98267.34
2022-12-08T10:55:58.350Z,98245.22
2022-12-08T10:58:36.291Z,98237.56
2022-12-08T11:01:26.791Z,98241.34
2022-12-08T11:03:58.408Z,98246.59
2022-12-08T11:06:32.751Z,98247.69
2022-12-08T11:09:17.409Z,98241.69
2022-12-08T11:11:58.334Z,98229.47
2022-12-08T11:14:29.031Z,98215.97
2022-12-08T11:17:07.229Z,98203.72
2022-12-08T11:19:41.967Z,98197.94
2022-12-08T11:22:30.709Z,98198.44
2022-12-08T11:25:24.875Z,98207.53
2022-12-08T11:27:57.854Z,98215.66
2022-12-08T11:30:36.378Z,98212.16
2022-12-08T11:33:19.853Z,98195.91
2022-12-08T11:35:56.297Z,98203.91
2022-12-08T11:38:27.732Z,98213.81
2022-12-08T11:41:22.910Z,98195.47
2022-12-08T11:44:05.777Z,98190.78
2022-12-08T11:46:58.593Z,98191.25
2022-12-08T11:49:40.325Z,98180.88
2022-12-08T11:52:26.564Z,98178.13
2022-12-08T11:55:05.455Z,98182.16
2022-12-08T11:57:33.260Z,98205.72
2022-12-08T12:00:02.768Z,98205.72
2022-12-08T12:02:48.344Z,98194.34
2022-12-08T12:06:23.930Z,98198.75
2022-12-08T12:09:22.835Z,98190.25
2022-12-08T12:12:15.992Z,98180.03
2022-12-08T12:16:00.668Z,98169.47
2022-12-08T12:18:47.680Z,98175.19
2022-12-08T12:21:35.913Z,98184.13
2022-12-08T12:24:25.476Z,98187.56
2022-12-08T12:27:22.863Z,98183.97
2022-12-08T12:30:06.733Z,98177.66
2022-12-08T12:32:58.290Z,98172.94
2022-12-08T12:35:41.103Z,98183.47
2022-12-08T12:38:42.793Z,98185.13
2022-12-08T12:41:13.537Z,98190.13
2022-12-08T12:44:13.101Z,98184.94
2022-12-08T12:46:46.296Z,98188.19
2022-12-08T12:49:39.215Z,98188.34
2022-12-08T12:52:16.033Z,98197.09
2022-12-08T12:54:55.690Z,98198.09
2022-12-08T12:57:37.213Z,98194.84
2022-12-08T13:00:04.656Z,98189.97
2022-12-08T13:02:44.148Z,98186.53
2022-12-08T13:05:31.680Z,98184.56
2022-12-08T13:08:19.180Z,98178.56
2022-12-08T13:11:09.815Z,98155.66
2022-12-08T13:13:56.439Z,98150.63
2022-12-08T13:16:27.167Z,98158.38
2022-12-08T13:19:03.524Z,98162.94
2022-12-08T13:21:39.117Z,98172.56
2022-12-08T13:24:33.141Z,98159.72
2022-12-08T13:27:03.779Z,98140.72
2022-12-08T13:29:33.515Z,98150.94
2022-12-08T13:32:10.077Z,98160.06
2022-12-08T13:34:45.429Z,98155.72
2022-12-08T13:37:15.654Z,98166.72
2022-12-08T13:40:00.897Z,98178.75
2022-12-08T13:42:40.524Z,98196.63
2022-12-08T13:45:27.845Z,98221.91
2022-12-08T13:48:44.677Z,98221.75
2022-12-08T13:55:12.948Z,98239.75
2022-12-08T13:57:29.642Z,98235.53
2022-12-08T14:00:15.331Z,98235.88
2022-12-08T14:02:48.559Z,98235.72
2022-12-08T14:05:34.618Z,98241.22
2022-12-08T14:08:57.018Z,98240.41
2022-12-08T14:11:33.777Z,98239.13
2022-12-08T14:14:06.503Z,98225.66
2022-12-08T14:16:40.765Z,98230.69
2022-12-08T14:19:21.128Z,98228.22
2022-12-08T14:22:14.118Z,98234.06
2022-12-08T14:24:57.826Z,98237.63
2022-12-08T14:27:32.293Z,98244.59
2022-12-08T14:30:07.677Z,98231.28
2022-12-08T14:32:39.468Z,98231.63
2022-12-08T14:35:07.195Z,98238.28
2022-12-08T14:37:48.720Z,98238.91
2022-12-08T14:40:25.155Z,98230.16
2022-12-08T14:43:19.709Z,98232.91
2022-12-08T14:45:50.864Z,98229.34
2022-12-08T14:48:31.022Z,98229.34
2022-12-08T14:51:21.217Z,98228.53
2022-12-08T14:53:56.267Z,98223.50
2022-12-08T14:56:45.437Z,98224.66
2022-12-08T14:59:23.047Z,98219.59
2022-12-08T15:02:08.827Z,98220.75
2022-12-08T15:04:44.656Z,98209.41
2022-12-08T15:07:19.538Z,98207.94
2022-12-08T15:10:05.918Z,98214.28
2022-12-08T15:12:33.795Z,98208.09
2022-12-08T15:15:14.415Z,98216.88
2022-12-08T15:17:51.626Z,98221.91
2022-12-08T15:20:40.967Z,98218.00
2022-12-08T15:23:38.424Z,98228.38
2022-12-08T15:26:06.540Z,98233.41
2022-12-08T15:28:34.280Z,98217.38
2022-12-08T15:31:02.447Z,98219.66
2022-12-08T15:33:29.912Z,98213.19
2022-12-08T15:35:57.447Z,98220.31
2022-12-08T15:38:28.862Z,98207.00
2022-12-08T15:41:00.822Z,98212.16
2022-12-08T15:43:31.336Z,98222.53
2022-12-08T15:46:00.226Z,98227.38
2022-12-08T15:48:30.635Z,98227.19
2022-12-08T15:50:58.591Z,98228.28
2022-12-08T15:53:26.315Z,98226.47
2022-12-08T15:58:55.257Z,98222.09
2022-12-08T16:01:24.559Z,98228.91
2022-12-08T16:07:20.257Z,98231.09
2022-12-08T16:09:38.629Z,98233.69
2022-12-08T16:13:13.420Z,98230.44
2022-12-08T16:18:27.623Z,98233.81
2022-12-08T16:23:45.236Z,98230.59
2022-12-08T16:26:35.437Z,98237.25
2022-12-08T16:29:05.660Z,98244.06
2022-12-08T16:31:33.506Z,98249.25
2022-12-08T16:34:01.209Z,98244.41
2022-12-08T16:36:28.856Z,98245.53
2022-12-08T16:38:56.539Z,98243.25
2022-12-08T16:41:43.112Z,98240.34
2022-12-08T16:44:10.653Z,98244.03
2022-12-08T16:46:38.353Z,98227.94
2022-12-08T16:49:09.428Z,98249.97
2022-12-08T16:51:37.195Z,98253.69
2022-12-08T16:54:05.022Z,98254.66
2022-12-08T16:56:33.745Z,98246.38
2022-12-08T16:59:02.296Z,98259.00
2022-12-08T17:01:30.715Z,98253.25
2022-12-08T17:06:46.533Z,98248.94
2022-12-08T17:09:14.315Z,98247.72
2022-12-08T17:11:43.710Z,98242.78
2022-12-08T17:14:14.721Z,98244.44
2022-12-08T17:16:44.163Z,98252.75
2022-12-08T17:19:14.097Z,98259.69
2022-12-08T17:21:42.968Z,98261.94
2022-12-08T17:24:10.992Z,98266.69
2022-12-08T17:26:38.628Z,98262.44
2022-12-08T17:29:06.324Z,98267.97
2022-12-08T17:31:34.233Z,98269.09
2022-12-08T17:34:04.911Z,98265.97
2022-12-08T17:36:32.727Z,98265.91
2022-12-08T17:39:01.251Z,98269.38
2022-12-08T17:41:29.430Z,98262.72
2022-12-08T17:43:57.509Z,98269.59
2022-12-08T17:46:25.241Z,98276.75
2022-12-08T17:48:53.636Z,98269.59
2022-12-08T17:51:21.404Z,98265.81
2022-12-08T17:53:49.055Z,98267.44
2022-12-08T17:56:21.861Z,98275.38
2022-12-08T17:58:54.284Z,98277.53
2022-12-08T18:01:24.133Z,98275.47
2022-12-08T18:03:51.890Z,98279.88
2022-12-08T18:06:19.655Z,98282.38
2022-12-08T18:08:47.441Z,98277.94
2022-12-08T18:11:19.900Z,98270.81
2022-12-08T18:13:50.152Z,98272.59
2022-12-08T18:16:21.438Z,98284.09
2022-12-08T18:18:49.330Z,98285.19
2022-12-08T18:21:23.278Z,98282.00
2022-12-08T18:23:52.107Z,98280.44
2022-12-08T18:26:19.878Z,98277.72
2022-12-08T18:28:47.926Z,98275.69
2022-12-08T18:31:19.812Z,98290.84
2022-12-08T18:33:49.607Z,98286.56
2022-12-08T18:36:21.977Z,98262.91
2022-12-08T18:38:50.272Z,98268.44
2022-12-08T18:41:25.705Z,98263.13
2022-12-08T18:43:55.365Z,98268.81
2022-12-08T18:46:24.840Z,98275.59
2022-12-08T18:48:53.117Z,98269.41
2022-12-08T18:51:24.089Z,98273.69
2022-12-08T18:53:52.495Z,98290.22
2022-12-08T18:56:33.031Z,98287.63
2022-12-08T18:59:08.855Z,98276.22
2022-12-08T19:01:38.848Z,98273.97
2022-12-08T19:04:28.089Z,98273.44
2022-12-08T19:06:57.580Z,98289.47
2022-12-08T19:09:26.976Z,98277.78
2022-12-08T19:11:56.332Z,98274.78
2022-12-08T19:14:28.185Z,98261.31
2022-12-08T19:16:58.063Z,98269.97
2022-12-08T19:19:27.417Z,98267.66
2022-12-08T19:21:56.283Z,98269.47
2022-12-08T19:24:24.978Z,98275.97
2022-12-08T19:26:53.521Z,98269.19
2022-12-08T19:29:21.072Z,98268.88
2022-12-08T19:31:48.924Z,98268.59
2022-12-08T19:34:19.605Z,98271.59
2022-12-08T19:36:48.216Z,98274.19
2022-12-08T19:39:40.614Z,98266.56
2022-12-08T19:42:36.632Z,98263.34
2022-12-08T19:45:13.354Z,98264.50
2022-12-08T19:47:41.823Z,98269.34
2022-12-08T19:50:30.143Z,98277.94
2022-12-08T19:52:58.425Z,98294.00
2022-12-08T19:55:27.656Z,98287.47
2022-12-08T19:57:56.763Z,98277.88
2022-12-08T20:00:24.717Z,98286.47
2022-12-08T20:02:52.424Z,98279.00
2022-12-08T20:05:20.305Z,98281.75
2022-12-08T20:07:48.002Z,98275.59
2022-12-08T20:10:30.741Z,98279.34
2022-12-08T20:13:17.130Z,98285.66
2022-12-08T20:15:45.736Z,98293.63
2022-12-08T20:18:15.476Z,98299.00
2022-12-08T20:20:45.762Z,98290.75
2022-12-08T20:23:15.564Z,98297.91
2022-12-08T20:25:45.427Z,98311.22
2022-12-08T20:28:14.542Z,98310.59
2022-12-08T20:30:44.021Z,98302.88
2022-12-08T20:33:14.032Z,98298.34
2022-12-08T20:35:43.203Z,98310.78
2022-12-08T20:38:13.508Z,98303.53
2022-12-08T20:40:46.555Z,98300.94
2022-12-08T20:43:15.231Z,98295.41
2022-12-08T20:45:43.468Z,98326.97
2022-12-08T20:48:11.907Z,98314.16
2022-12-08T20:50:40.423Z,98323.28
2022-12-08T20:53:09.598Z,98319.25
2022-12-08T20:55:43.012Z,98318.72
2022-12-08T20:58:12.571Z,98318.38
2022-12-08T21:00:40.792Z,98330.69
2022-12-08T21:03:09.542Z,98333.47
2022-12-08T21:05:39.070Z,98321.47
2022-12-08T21:08:08.095Z,98325.16
2022-12-08T21:10:42.203Z,98323.53
2022-12-08T21:13:12.258Z,98324.34
2022-12-08T21:15:46.751Z,98330.97
2022-12-08T21:18:17.035Z,98315.09
2022-12-08T21:20:45.788Z,98313.47
2022-12-08T21:23:14.117Z,98323.03
2022-12-08T21:25:45.176Z,98321.28
2022-12-08T21:28:13.593Z,98323.91
2022-12-08T21:30:43.174Z,98331.13
2022-12-08T21:33:10.918Z,98331.13
2022-12-08T21:35:38.820Z,98329.63
2022-12-08T21:38:07.406Z,98335.31
2022-12-08T21:40:35.600Z,98322.72
2022-12-08T21:43:06.057Z,98330.84
2022-12-08T21:45:34.341Z,98333.38
2022-12-08T21:48:10.330Z,98332.38
2022-12-08T21:50:39.779Z,98320.31
2022-12-08T21:53:08.025Z,98314.44
2022-12-08T21:55:35.780Z,98318.94
2022-12-08T21:58:03.460Z,98320.59
2022-12-08T22:00:37.641Z,98327.06
2022-12-08T22:03:06.019Z,98320.59
2022-12-08T22:05:35.806Z,98329.31
2022-12-08T22:08:03.683Z,98320.59
2022-12-08T22:10:31.573Z,98314.72
2022-12-08T22:12:59.243Z,98325.28
2022-12-08T22:15:29.734Z,98318.56
2022-12-08T22:17:57.761Z,98321.34
2022-12-08T22:20:25.701Z,98330.25
2022-12-08T22:22:53.207Z,98329.63
2022-12-08T22:25:21.103Z,98326.03
2022-12-08T22:27:48.657Z,98328.59
2022-12-08T22:30:16.314Z,98333.16
2022-12-08T22:32:43.937Z,98327.50
2022-12-08T22:35:11.552Z,98323.72
2022-12-08T22:37:39.270Z,98322.25
2022-12-08T22:40:08.381Z,98325.28
2022-12-08T22:42:36.346Z,98318.69
2022-12-08T22:45:04.212Z,98325.97
2022-12-08T22:47:31.728Z,98326.97
2022-12-08T22:49:59.878Z,98333.66
2022-12-08T22:52:27.742Z,98312.63
2022-12-08T22:54:55.772Z,98319.31
2022-12-08T22:57:23.352Z,98317.03
2022-12-08T22:59:50.909Z,98324.50
2022-12-08T23:02:18.489Z,98319.50
2022-12-08T23:04:46.529Z,98319.03
2022-12-08T23:07:14.453Z,98324.72
2022-12-08T23:09:42.309Z,98328.25
2022-12-08T23:12:10.193Z,98329.09
2022-12-08T23:14:38.074Z,98329.88
2022-12-08T23:17:05.763Z,98325.66
2022-12-08T23:19:37.169Z,98322.22
2022-12-08T23:22:05.330Z,98328.25
2022-12-08T23:24:33.021Z,98338.22
2022-12-08T23:27:00.802Z,98334.31
2022-12-08T23:29:28.374Z,98332.69
2022-12-08T23:31:56.323Z,98324.78
2022-12-08T23:34:24.451Z,98320.53
2022-12-08T23:36:52.121Z,98325.72
2022-12-08T23:39:19.800Z,98320.69
2022-12-08T23:41:47.574Z,98312.63
2022-12-08T23:44:15.381Z,98316.03
2022-12-08T23:46:43.184Z,98307.91
2022-12-08T23:49:11.027Z,98307.78
2022-12-08T23:51:39.125Z,98316.72
2022-12-08T23:54:07.955Z,98313.28
2022-12-08T23:56:35.863Z,98314.94
2022-12-08T23:59:03.648Z,98303.75
